»·PEaware :: N171MF O60-KHWD

N171MF :: O60-KHWD

FLIGHT INFORMATION

Flight Status: Arrived
Operator: Privately registered:
United States
More flights under this callsign
Pilot: Mahmoud F. (19090)
Aircraft: PIPER PA-34 SENECA
(PA34)
More flights by this aircraft type
Origin: O60 Cloverdale Mun
United States
Destination: KHWD Hayward Executive
United States
More flights between these airports :: More routes between these airports
Route: STS V108 CROIT ALTAM
File this flight plan on PilotEdge
Remarks: VOR ONLY; LOC 28L REQUESTED
Altitude:
(Current/Filed)
9,000ft
Speed:
(Current/Filed)
140kts
Departed: 02-Apr-19 08:28 PM
Arrived: 02-Apr-19 09:18 PM
Distance/Time
Traveled:
78nm/0:50
Distance/Time
To Go:
Arrived

Flight Plot

Page will automatically refresh every two minutes.

Flight plan parsing failed; only flown route is shown


Map Options




Map Legend


Flown Route
Filed Route
Departure Airport
Arrival Airport
Navaid (VOR, NDB)
Fix

Horizontal Profiles

Position Reports

Time Latitude Longitude Heading Altitude Ground
Speed
02-Apr-19 19:54 38.774108 -122.992658 73 275ft 0kts
02-Apr-19 19:55 38.774108 -122.992658 73 275ft 0kts
02-Apr-19 19:56 38.774108 -122.992658 73 275ft 0kts
02-Apr-19 19:57 38.774108 -122.992658 73 275ft 0kts
02-Apr-19 19:58 38.774108 -122.992658 73 275ft 0kts
02-Apr-19 19:59 38.774108 -122.992658 73 275ft 0kts
02-Apr-19 20:00 38.774108 -122.992658 73 275ft 0kts
02-Apr-19 20:01 38.774108 -122.992658 73 275ft 0kts
02-Apr-19 20:02 38.774108 -122.992658 73 275ft 0kts
02-Apr-19 20:03 38.774108 -122.992658 73 275ft 0kts
02-Apr-19 20:04 38.774108 -122.992658 73 275ft 0kts
02-Apr-19 20:05 38.774108 -122.992658 73 275ft 0kts
02-Apr-19 20:06 38.774108 -122.992658 73 275ft 0kts
02-Apr-19 20:07 38.774108 -122.992658 73 275ft 0kts
02-Apr-19 20:08 38.774108 -122.992658 73 275ft 0kts
02-Apr-19 20:09 38.774108 -122.992658 73 275ft 0kts
02-Apr-19 20:10 38.774108 -122.992658 73 275ft 0kts
02-Apr-19 20:11 38.774108 -122.992658 73 275ft 0kts
02-Apr-19 20:12 38.774108 -122.992658 73 275ft 0kts
02-Apr-19 20:13 38.774109 -122.992655 73 275ft 0kts
02-Apr-19 20:14 38.774109 -122.992654 73 275ft 0kts
02-Apr-19 20:15 38.774110 -122.992653 73 275ft 0kts
02-Apr-19 20:16 38.774110 -122.992652 73 275ft 0kts
02-Apr-19 20:17 38.774110 -122.992651 73 275ft 0kts
02-Apr-19 20:18 38.774407 -122.992431 18 275ft 2kts
02-Apr-19 20:19 38.774471 -122.992402 9 275ft 0kts
02-Apr-19 20:20 38.774867 -122.992309 347 275ft 3kts
02-Apr-19 20:21 38.777537 -122.994042 333 275ft 15kts
02-Apr-19 20:22 38.779109 -122.995092 333 275ft 0kts
02-Apr-19 20:23 38.779109 -122.995092 333 275ft 0kts
02-Apr-19 20:24 38.779110 -122.995093 333 275ft 0kts
02-Apr-19 20:25 38.779111 -122.995093 333 275ft 0kts
02-Apr-19 20:26 38.779563 -122.994889 95 275ft 1kts
02-Apr-19 20:27 38.764450 -122.983561 148 984ft 99kts
02-Apr-19 20:28 38.739995 -122.964016 151 2304ft 99kts
02-Apr-19 20:29 38.715131 -122.946838 157 3532ft 104kts
02-Apr-19 20:30 38.688656 -122.929344 157 4728ft 108kts
02-Apr-19 20:31 38.661965 -122.910701 156 5962ft 110kts
02-Apr-19 20:32 38.634486 -122.891818 157 7157ft 114kts
02-Apr-19 20:33 38.605818 -122.873599 157 8248ft 117kts
02-Apr-19 20:34 38.574784 -122.854281 158 9020ft 134kts
02-Apr-19 20:35 38.535062 -122.830447 156 8960ft 170kts
02-Apr-19 20:36 38.496128 -122.795867 131 9043ft 177kts
02-Apr-19 20:37 38.462282 -122.749519 137 9017ft 179kts
02-Apr-19 20:38 38.427395 -122.704077 136 9026ft 179kts
02-Apr-19 20:39 38.392569 -122.657669 136 8933ft 184kts
02-Apr-19 20:40 38.357010 -122.613134 134 9019ft 179kts
02-Apr-19 20:41 38.326277 -122.562615 129 9026ft 180kts
02-Apr-19 20:42 38.295158 -122.512404 134 9024ft 180kts
02-Apr-19 20:43 38.261324 -122.465492 136 9023ft 179kts
02-Apr-19 20:44 38.226414 -122.419368 136 9026ft 183kts
02-Apr-19 20:45 38.191038 -122.372632 136 9023ft 184kts
02-Apr-19 20:46 38.155507 -122.325044 125 8992ft 187kts
02-Apr-19 20:47 38.129547 -122.267975 124 8997ft 187kts
02-Apr-19 20:48 38.102365 -122.210300 123 8997ft 192kts
02-Apr-19 20:49 38.085322 -122.174632 124 8996ft 192kts
02-Apr-19 20:56 37.837978 -121.786160 132 9019ft 191kts
02-Apr-19 20:57 37.804885 -121.732841 135 8987ft 192kts
02-Apr-19 20:58 37.754049 -121.731513 194 7717ft 182kts
02-Apr-19 20:59 37.705090 -121.743808 195 6445ft 180kts
02-Apr-19 21:00 37.657603 -121.755551 194 5143ft 174kts
02-Apr-19 21:01 37.612838 -121.766173 192 4959ft 166kts
02-Apr-19 21:02 37.568169 -121.775876 193 5023ft 161kts
02-Apr-19 21:03 37.523857 -121.786793 204 4998ft 162kts
02-Apr-19 21:04 37.526974 -121.829875 295 4924ft 143kts
02-Apr-19 21:05 37.545317 -121.871423 294 4697ft 135kts
02-Apr-19 21:06 37.563055 -121.912058 295 3692ft 125kts
02-Apr-19 21:07 37.578305 -121.946654 294 2488ft 100kts
02-Apr-19 21:08 37.592661 -121.977886 295 2513ft 100kts
02-Apr-19 21:09 37.605977 -122.004956 292 2551ft 91kts
02-Apr-19 21:10 37.617433 -122.032689 293 1808ft 90kts
02-Apr-19 21:11 37.630755 -122.060607 300 1243ft 88kts
02-Apr-19 21:12 37.643403 -122.088684 294 658ft 94kts
02-Apr-19 21:13 37.657569 -122.119177 292 464ft 110kts
02-Apr-19 21:14 37.646151 -122.131882 120 627ft 123kts
02-Apr-19 21:15 37.632614 -122.095410 47 699ft 116kts
02-Apr-19 21:16 37.653764 -122.111650 294 181ft 88kts
02-Apr-19 21:17 37.660932 -122.127399 299 53ft 21kts
02-Apr-19 21:18 37.663138 -122.128073 56 53ft 15kts
02-Apr-19 21:19 37.661779 -122.123698 118 53ft 11kts
02-Apr-19 21:20 37.661930 -122.123197 48 53ft 0kts

Navigation Log

Ident Type
Flight plan parsing failed, navigation log unavailable